sensor_id;sensor_type;location;lat;lon;timestamp;pressure;altitude;pressure_sealevel;temperature;humidity
36190;BME280;22232;50.914;13.858;2023-02-15T00:00:07;99235.91;;;0.13;100.00
36190;BME280;22232;50.914;13.858;2023-02-15T00:02:38;99230.78;;;0.12;100.00
36190;BME280;22232;50.914;13.858;2023-02-15T00:05:07;99227.03;;;0.05;100.00
36190;BME280;22232;50.914;13.858;2023-02-15T00:07:34;99234.06;;;0.04;100.00
36190;BME280;22232;50.914;13.858;2023-02-15T00:10:03;99227.84;;;0.05;100.00
36190;BME280;22232;50.914;13.858;2023-02-15T00:12:30;99227.53;;;-0.02;100.00
36190;BME280;22232;50.914;13.858;2023-02-15T00:14:58;99217.16;;;-0.03;100.00
36190;BME280;22232;50.914;13.858;2023-02-15T00:17:28;99224.34;;;-0.05;100.00
36190;BME280;22232;50.914;13.858;2023-02-15T00:19:56;99222.91;;;-0.09;100.00
36190;BME280;22232;50.914;13.858;2023-02-15T00:22:23;99225.75;;;-0.01;100.00
36190;BME280;22232;50.914;13.858;2023-02-15T00:24:51;99221.78;;;0.05;100.00
36190;BME280;22232;50.914;13.858;2023-02-15T00:27:18;99217.34;;;0.05;100.00
36190;BME280;22232;50.914;13.858;2023-02-15T00:29:46;99214.88;;;0.04;100.00
36190;BME280;22232;50.914;13.858;2023-02-15T00:32:14;99217.50;;;0.04;100.00
36190;BME280;22232;50.914;13.858;2023-02-15T00:34:42;99207.19;;;0.12;100.00
36190;BME280;22232;50.914;13.858;2023-02-15T00:37:10;99207.44;;;0.09;100.00
36190;BME280;22232;50.914;13.858;2023-02-15T00:39:38;99206.19;;;0.03;100.00
36190;BME280;22232;50.914;13.858;2023-02-15T00:42:05;99206.09;;;-0.07;100.00
36190;BME280;22232;50.914;13.858;2023-02-15T00:44:33;99212.69;;;-0.12;100.00
36190;BME280;22232;50.914;13.858;2023-02-15T00:47:00;99213.53;;;-0.12;100.00
36190;BME280;22232;50.914;13.858;2023-02-15T00:49:28;99215.75;;;-0.07;100.00
36190;BME280;22232;50.914;13.858;2023-02-15T00:51:55;99223.56;;;0.04;100.00
36190;BME280;22232;50.914;13.858;2023-02-15T00:54:22;99216.72;;;0.13;100.00
36190;BME280;22232;50.914;13.858;2023-02-15T00:56:50;99205.25;;;0.14;100.00
36190;BME280;22232;50.914;13.858;2023-02-15T00:59:18;99211.22;;;0.16;100.00
36190;BME280;22232;50.914;13.858;2023-02-15T01:01:47;99205.56;;;0.20;100.00
36190;BME280;22232;50.914;13.858;2023-02-15T01:04:14;99202.69;;;0.23;100.00
36190;BME280;22232;50.914;13.858;2023-02-15T01:06:42;99197.00;;;0.18;100.00
36190;BME280;22232;50.914;13.858;2023-02-15T01:09:10;99198.38;;;0.13;100.00
36190;BME280;22232;50.914;13.858;2023-02-15T01:11:37;99195.03;;;0.11;100.00
36190;BME280;22232;50.914;13.858;2023-02-15T01:14:05;99189.34;;;0.06;100.00
36190;BME280;22232;50.914;13.858;2023-02-15T01:16:32;99192.06;;;-0.06;100.00
36190;BME280;22232;50.914;13.858;2023-02-15T01:19:00;99189.34;;;-0.15;100.00
36190;BME280;22232;50.914;13.858;2023-02-15T01:21:31;99186.56;;;-0.24;100.00
36190;BME280;22232;50.914;13.858;2023-02-15T01:24:02;99181.81;;;-0.30;100.00
36190;BME280;22232;50.914;13.858;2023-02-15T01:26:30;99180.28;;;-0.32;100.00
36190;BME280;22232;50.914;13.858;2023-02-15T01:28:58;99182.50;;;-0.28;100.00
36190;BME280;22232;50.914;13.858;2023-02-15T01:31:26;99184.19;;;-0.27;100.00
36190;BME280;22232;50.914;13.858;2023-02-15T01:33:53;99187.38;;;-0.23;100.00
36190;BME280;22232;50.914;13.858;2023-02-15T01:36:21;99186.16;;;-0.19;100.00
36190;BME280;22232;50.914;13.858;2023-02-15T01:38:48;99181.31;;;-0.24;100.00
36190;BME280;22232;50.914;13.858;2023-02-15T01:41:16;99183.66;;;-0.20;100.00
36190;BME280;22232;50.914;13.858;2023-02-15T01:46:24;99178.28;;;-0.19;100.00
36190;BME280;22232;50.914;13.858;2023-02-15T01:49:21;99175.53;;;-0.17;100.00
36190;BME280;22232;50.914;13.858;2023-02-15T01:51:51;99171.50;;;-0.21;100.00
36190;BME280;22232;50.914;13.858;2023-02-15T01:54:29;99165.53;;;-0.33;100.00
36190;BME280;22232;50.914;13.858;2023-02-15T01:57:01;99164.91;;;-0.37;100.00
36190;BME280;22232;50.914;13.858;2023-02-15T01:59:31;99151.63;;;-0.45;100.00
36190;BME280;22232;50.914;13.858;2023-02-15T02:02:02;99149.28;;;-0.48;100.00
36190;BME280;22232;50.914;13.858;2023-02-15T02:07:06;99146.66;;;-0.48;100.00
36190;BME280;22232;50.914;13.858;2023-02-15T02:09:34;99141.16;;;-0.45;100.00
36190;BME280;22232;50.914;13.858;2023-02-15T02:12:03;99153.03;;;-0.41;100.00
36190;BME280;22232;50.914;13.858;2023-02-15T02:14:31;99136.47;;;-0.41;100.00
36190;BME280;22232;50.914;13.858;2023-02-15T02:17:21;99136.44;;;-0.51;100.00
36190;BME280;22232;50.914;13.858;2023-02-15T02:34:23;99122.53;;;-0.63;100.00
36190;BME280;22232;50.914;13.858;2023-02-15T02:37:19;99111.66;;;-0.58;100.00
36190;BME280;22232;50.914;13.858;2023-02-15T02:42:57;99110.06;;;-0.50;100.00
36190;BME280;22232;50.914;13.858;2023-02-15T02:45:39;99107.84;;;-0.54;100.00
36190;BME280;22232;50.914;13.858;2023-02-15T02:48:15;99110.72;;;-0.57;100.00
36190;BME280;22232;50.914;13.858;2023-02-15T02:50:48;99110.41;;;-0.64;100.00
36190;BME280;22232;50.914;13.858;2023-02-15T02:53:16;99100.16;;;-0.67;100.00
36190;BME280;22232;50.914;13.858;2023-02-15T02:55:46;99101.53;;;-0.73;100.00
36190;BME280;22232;50.914;13.858;2023-02-15T02:58:41;99104.41;;;-0.76;100.00
36190;BME280;22232;50.914;13.858;2023-02-15T03:01:17;99101.16;;;-0.79;100.00
36190;BME280;22232;50.914;13.858;2023-02-15T03:03:51;99099.53;;;-0.80;100.00
36190;BME280;22232;50.914;13.858;2023-02-15T03:06:48;99096.78;;;-0.79;100.00
36190;BME280;22232;50.914;13.858;2023-02-15T03:09:30;99100.81;;;-0.75;100.00
36190;BME280;22232;50.914;13.858;2023-02-15T03:12:17;99094.59;;;-0.74;100.00
36190;BME280;22232;50.914;13.858;2023-02-15T03:14:53;99094.22;;;-0.69;100.00
36190;BME280;22232;50.914;13.858;2023-02-15T03:17:23;99094.81;;;-0.65;100.00
36190;BME280;22232;50.914;13.858;2023-02-15T03:19:55;99091.81;;;-0.61;100.00
36190;BME280;22232;50.914;13.858;2023-02-15T03:22:35;99087.66;;;-0.63;100.00
36190;BME280;22232;50.914;13.858;2023-02-15T03:25:16;99078.13;;;-0.64;100.00
36190;BME280;22232;50.914;13.858;2023-02-15T03:27:49;99085.03;;;-0.63;100.00
36190;BME280;22232;50.914;13.858;2023-02-15T03:30:21;99081.44;;;-0.62;100.00
36190;BME280;22232;50.914;13.858;2023-02-15T03:32:51;99079.41;;;-0.59;100.00
36190;BME280;22232;50.914;13.858;2023-02-15T03:35:23;99091.69;;;-0.59;100.00
36190;BME280;22232;50.914;13.858;2023-02-15T03:37:57;99086.31;;;-0.58;100.00
36190;BME280;22232;50.914;13.858;2023-02-15T03:40:29;99086.88;;;-0.54;100.00
36190;BME280;22232;50.914;13.858;2023-02-15T03:46:16;99084.31;;;-0.44;100.00
36190;BME280;22232;50.914;13.858;2023-02-15T03:48:57;99091.16;;;-0.32;100.00
36190;BME280;22232;50.914;13.858;2023-02-15T03:51:30;99094.06;;;-0.26;100.00
36190;BME280;22232;50.914;13.858;2023-02-15T03:54:12;99096.59;;;-0.24;100.00
36190;BME280;22232;50.914;13.858;2023-02-15T03:56:42;99097.41;;;-0.24;100.00
36190;BME280;22232;50.914;13.858;2023-02-15T03:59:29;99092.47;;;-0.17;100.00
36190;BME280;22232;50.914;13.858;2023-02-15T04:02:21;99086.03;;;-0.34;100.00
36190;BME280;22232;50.914;13.858;2023-02-15T04:04:50;99095.31;;;-0.51;100.00
36190;BME280;22232;50.914;13.858;2023-02-15T04:07:18;99099.94;;;-0.64;100.00
36190;BME280;22232;50.914;13.858;2023-02-15T04:09:45;99098.75;;;-0.71;100.00
36190;BME280;22232;50.914;13.858;2023-02-15T04:12:31;99101.53;;;-0.73;100.00
36190;BME280;22232;50.914;13.858;2023-02-15T04:14:59;99104.91;;;-0.82;100.00
36190;BME280;22232;50.914;13.858;2023-02-15T04:17:45;99096.34;;;-0.84;100.00
36190;BME280;22232;50.914;13.858;2023-02-15T04:20:13;99102.03;;;-0.79;100.00
36190;BME280;22232;50.914;13.858;2023-02-15T04:22:59;99099.59;;;-0.71;100.00
36190;BME280;22232;50.914;13.858;2023-02-15T04:25:45;99101.94;;;-0.67;100.00
36190;BME280;22232;50.914;13.858;2023-02-15T04:28:13;99098.97;;;-0.63;100.00
36190;BME280;22232;50.914;13.858;2023-02-15T04:30:40;99094.28;;;-0.59;100.00
36190;BME280;22232;50.914;13.858;2023-02-15T04:33:08;99100.50;;;-0.60;100.00
36190;BME280;22232;50.914;13.858;2023-02-15T04:35:35;99098.13;;;-0.63;100.00
36190;BME280;22232;50.914;13.858;2023-02-15T04:38:03;99090.28;;;-0.63;100.00
36190;BME280;22232;50.914;13.858;2023-02-15T04:40:30;99089.09;;;-0.71;100.00
36190;BME280;22232;50.914;13.858;2023-02-15T04:42:58;99090.28;;;-0.84;100.00
36190;BME280;22232;50.914;13.858;2023-02-15T04:45:25;99091.59;;;-0.90;100.00
36190;BME280;22232;50.914;13.858;2023-02-15T04:47:54;99089.81;;;-0.89;100.00
36190;BME280;22232;50.914;13.858;2023-02-15T04:50:22;99085.91;;;-0.95;100.00
36190;BME280;22232;50.914;13.858;2023-02-15T04:52:49;99088.91;;;-1.00;100.00
36190;BME280;22232;50.914;13.858;2023-02-15T04:55:17;99088.59;;;-1.06;100.00
36190;BME280;22232;50.914;13.858;2023-02-15T04:57:45;99088.69;;;-1.08;100.00
36190;BME280;22232;50.914;13.858;2023-02-15T05:00:13;99090.59;;;-1.10;100.00
36190;BME280;22232;50.914;13.858;2023-02-15T05:02:41;99080.25;;;-1.11;100.00
36190;BME280;22232;50.914;13.858;2023-02-15T05:05:08;99084.53;;;-1.10;100.00
36190;BME280;22232;50.914;13.858;2023-02-15T05:07:36;99081.09;;;-1.11;100.00
36190;BME280;22232;50.914;13.858;2023-02-15T05:10:05;99076.50;;;-1.19;100.00
36190;BME280;22232;50.914;13.858;2023-02-15T05:12:32;99070.66;;;-1.22;100.00
36190;BME280;22232;50.914;13.858;2023-02-15T05:15:00;99072.69;;;-1.26;100.00
36190;BME280;22232;50.914;13.858;2023-02-15T05:17:27;99063.19;;;-1.27;100.00
36190;BME280;22232;50.914;13.858;2023-02-15T05:19:55;99066.88;;;-1.29;100.00
36190;BME280;22232;50.914;13.858;2023-02-15T05:22:22;99070.00;;;-1.35;100.00
36190;BME280;22232;50.914;13.858;2023-02-15T05:24:50;99068.59;;;-1.40;100.00
36190;BME280;22232;50.914;13.858;2023-02-15T05:27:36;99077.63;;;-1.44;100.00
36190;BME280;22232;50.914;13.858;2023-02-15T05:30:22;99079.16;;;-1.41;100.00
36190;BME280;22232;50.914;13.858;2023-02-15T05:32:50;99071.06;;;-1.38;100.00
36190;BME280;22232;50.914;13.858;2023-02-15T05:35:18;99068.78;;;-1.31;100.00
36190;BME280;22232;50.914;13.858;2023-02-15T05:37:45;99065.22;;;-1.30;100.00
36190;BME280;22232;50.914;13.858;2023-02-15T05:40:13;99071.03;;;-1.27;100.00
36190;BME280;22232;50.914;13.858;2023-02-15T05:42:40;99062.22;;;-1.26;100.00
36190;BME280;22232;50.914;13.858;2023-02-15T05:45:08;99063.91;;;-1.25;100.00
36190;BME280;22232;50.914;13.858;2023-02-15T05:51:48;99060.94;;;-1.31;100.00
36190;BME280;22232;50.914;13.858;2023-02-15T05:54:16;99068.44;;;-1.27;100.00
36190;BME280;22232;50.914;13.858;2023-02-15T05:56:43;99064.50;;;-1.32;100.00
36190;BME280;22232;50.914;13.858;2023-02-15T05:59:11;99062.72;;;-1.32;100.00
36190;BME280;22232;50.914;13.858;2023-02-15T06:01:39;99059.84;;;-1.29;100.00
36190;BME280;22232;50.914;13.858;2023-02-15T06:04:07;99063.44;;;-1.30;100.00
36190;BME280;22232;50.914;13.858;2023-02-15T06:06:34;99059.63;;;-1.37;100.00
36190;BME280;22232;50.914;13.858;2023-02-15T06:09:02;99050.72;;;-1.34;100.00
36190;BME280;22232;50.914;13.858;2023-02-15T06:11:30;99057.75;;;-1.46;100.00
36190;BME280;22232;50.914;13.858;2023-02-15T06:13:57;99061.47;;;-1.49;100.00
36190;BME280;22232;50.914;13.858;2023-02-15T06:16:25;99061.00;;;-1.43;100.00
36190;BME280;22232;50.914;13.858;2023-02-15T06:18:52;99062.25;;;-1.37;100.00
36190;BME280;22232;50.914;13.858;2023-02-15T06:21:20;99062.94;;;-1.24;100.00
36190;BME280;22232;50.914;13.858;2023-02-15T06:23:47;99065.97;;;-1.07;100.00
36190;BME280;22232;50.914;13.858;2023-02-15T06:26:15;99059.53;;;-0.82;100.00
36190;BME280;22232;50.914;13.858;2023-02-15T06:28:42;99061.75;;;-0.36;100.00
36190;BME280;22232;50.914;13.858;2023-02-15T06:31:10;99055.03;;;0.12;100.00
36190;BME280;22232;50.914;13.858;2023-02-15T06:33:37;99050.19;;;0.67;100.00
36190;BME280;22232;50.914;13.858;2023-02-15T06:36:05;99046.03;;;1.13;100.00
36190;BME280;22232;50.914;13.858;2023-02-15T06:38:33;99045.53;;;1.56;100.00
36190;BME280;22232;50.914;13.858;2023-02-15T06:41:01;99038.25;;;2.05;100.00
36190;BME280;22232;50.914;13.858;2023-02-15T06:43:28;99033.25;;;2.58;100.00
36190;BME280;22232;50.914;13.858;2023-02-15T06:45:56;99033.34;;;3.02;100.00
36190;BME280;22232;50.914;13.858;2023-02-15T06:48:23;99028.00;;;3.19;100.00
36190;BME280;22232;50.914;13.858;2023-02-15T06:50:51;99028.28;;;3.60;100.00
36190;BME280;22232;50.914;13.858;2023-02-15T06:53:18;99030.56;;;3.89;100.00
36190;BME280;22232;50.914;13.858;2023-02-15T06:55:46;99030.56;;;3.89;100.00
36190;BME280;22232;50.914;13.858;2023-02-15T06:58:13;99025.34;;;3.98;100.00
36190;BME280;22232;50.914;13.858;2023-02-15T07:00:41;99019.28;;;4.05;100.00
36190;BME280;22232;50.914;13.858;2023-02-15T07:03:08;99023.00;;;4.37;100.00
36190;BME280;22232;50.914;13.858;2023-02-15T07:05:36;99028.19;;;4.63;100.00
36190;BME280;22232;50.914;13.858;2023-02-15T07:08:03;99025.38;;;4.65;100.00
36190;BME280;22232;50.914;13.858;2023-02-15T07:10:31;99018.16;;;4.75;100.00
36190;BME280;22232;50.914;13.858;2023-02-15T07:12:58;99029.06;;;5.13;100.00
36190;BME280;22232;50.914;13.858;2023-02-15T07:15:26;99019.63;;;5.10;100.00
36190;BME280;22232;50.914;13.858;2023-02-15T07:17:54;99015.84;;;5.13;100.00
36190;BME280;22232;50.914;13.858;2023-02-15T07:20:22;99017.94;;;5.58;100.00
36190;BME280;22232;50.914;13.858;2023-02-15T07:22:50;99017.31;;;5.87;100.00
36190;BME280;22232;50.914;13.858;2023-02-15T07:25:18;99006.59;;;5.89;100.00
36190;BME280;22232;50.914;13.858;2023-02-15T07:27:45;99015.31;;;5.42;100.00
36190;BME280;22232;50.914;13.858;2023-02-15T07:30:15;99016.47;;;4.98;100.00
36190;BME280;22232;50.914;13.858;2023-02-15T07:32:44;99011.72;;;4.94;100.00
36190;BME280;22232;50.914;13.858;2023-02-15T07:35:32;99004.41;;;4.71;100.00
36190;BME280;22232;50.914;13.858;2023-02-15T07:38:01;99000.25;;;4.52;100.00
36190;BME280;22232;50.914;13.858;2023-02-15T07:40:28;99003.25;;;4.66;100.00
36190;BME280;22232;50.914;13.858;2023-02-15T07:42:57;99004.69;;;4.35;100.00
36190;BME280;22232;50.914;13.858;2023-02-15T07:45:26;99006.97;;;4.30;100.00
36190;BME280;22232;50.914;13.858;2023-02-15T07:47:54;98999.28;;;4.62;100.00
36190;BME280;22232;50.914;13.858;2023-02-15T07:50:22;98998.97;;;4.73;100.00
36190;BME280;22232;50.914;13.858;2023-02-15T07:52:49;98997.34;;;4.96;100.00
36190;BME280;22232;50.914;13.858;2023-02-15T07:55:17;98989.88;;;4.83;100.00
36190;BME280;22232;50.914;13.858;2023-02-15T07:57:47;98986.75;;;4.80;100.00
36190;BME280;22232;50.914;13.858;2023-02-15T08:00:17;98981.78;;;4.69;100.00
36190;BME280;22232;50.914;13.858;2023-02-15T08:02:49;98983.09;;;4.65;100.00
36190;BME280;22232;50.914;13.858;2023-02-15T08:05:37;98972.84;;;4.45;100.00
36190;BME280;22232;50.914;13.858;2023-02-15T08:08:04;98969.72;;;4.66;100.00
36190;BME280;22232;50.914;13.858;2023-02-15T08:10:33;98966.44;;;4.72;100.00
36190;BME280;22232;50.914;13.858;2023-02-15T08:13:19;98961.97;;;4.81;100.00
36190;BME280;22232;50.914;13.858;2023-02-15T08:15:50;98961.63;;;4.92;100.00
36190;BME280;22232;50.914;13.858;2023-02-15T08:18:17;98953.69;;;4.92;100.00
36190;BME280;22232;50.914;13.858;2023-02-15T08:20:51;98954.84;;;5.06;100.00
36190;BME280;22232;50.914;13.858;2023-02-15T08:23:18;98950.88;;;5.02;100.00
36190;BME280;22232;50.914;13.858;2023-02-15T08:25:46;98948.84;;;5.28;100.00
36190;BME280;22232;50.914;13.858;2023-02-15T08:28:14;98946.19;;;5.37;100.00
36190;BME280;22232;50.914;13.858;2023-02-15T08:30:41;98941.19;;;5.50;100.00
36190;BME280;22232;50.914;13.858;2023-02-15T08:33:09;98940.16;;;5.67;100.00
36190;BME280;22232;50.914;13.858;2023-02-15T08:35:36;98937.13;;;5.79;100.00
36190;BME280;22232;50.914;13.858;2023-02-15T08:38:04;98938.59;;;5.81;100.00
36190;BME280;22232;50.914;13.858;2023-02-15T08:40:31;98928.88;;;5.73;100.00
36190;BME280;22232;50.914;13.858;2023-02-15T08:42:59;98930.84;;;5.80;100.00
36190;BME280;22232;50.914;13.858;2023-02-15T08:45:26;98935.44;;;5.94;100.00
36190;BME280;22232;50.914;13.858;2023-02-15T08:47:54;98930.63;;;5.97;100.00
36190;BME280;22232;50.914;13.858;2023-02-15T08:50:21;98929.81;;;5.89;100.00
36190;BME280;22232;50.914;13.858;2023-02-15T08:52:49;98932.78;;;5.86;100.00
36190;BME280;22232;50.914;13.858;2023-02-15T08:55:16;98933.00;;;5.76;100.00
36190;BME280;22232;50.914;13.858;2023-02-15T08:57:44;98936.13;;;5.80;100.00
36190;BME280;22232;50.914;13.858;2023-02-15T09:00:13;98936.81;;;5.73;100.00
36190;BME280;22232;50.914;13.858;2023-02-15T09:02:40;98939.00;;;5.62;100.00
36190;BME280;22232;50.914;13.858;2023-02-15T09:05:08;98934.38;;;5.64;100.00
36190;BME280;22232;50.914;13.858;2023-02-15T09:07:36;98930.69;;;5.73;100.00
36190;BME280;22232;50.914;13.858;2023-02-15T09:10:04;98930.69;;;5.73;100.00
36190;BME280;22232;50.914;13.858;2023-02-15T09:12:31;98936.41;;;5.93;100.00
36190;BME280;22232;50.914;13.858;2023-02-15T09:14:59;98938.22;;;5.92;100.00
36190;BME280;22232;50.914;13.858;2023-02-15T09:17:27;98931.63;;;5.96;100.00
36190;BME280;22232;50.914;13.858;2023-02-15T09:19:54;98926.94;;;6.07;100.00
36190;BME280;22232;50.914;13.858;2023-02-15T09:22:22;98925.75;;;6.09;100.00
36190;BME280;22232;50.914;13.858;2023-02-15T09:24:49;98933.16;;;6.14;100.00
36190;BME280;22232;50.914;13.858;2023-02-15T09:27:17;98919.28;;;6.35;100.00
36190;BME280;22232;50.914;13.858;2023-02-15T09:29:44;98932.66;;;6.41;100.00
36190;BME280;22232;50.914;13.858;2023-02-15T09:32:13;98932.63;;;6.50;100.00
36190;BME280;22232;50.914;13.858;2023-02-15T09:34:42;98920.47;;;6.55;100.00
36190;BME280;22232;50.914;13.858;2023-02-15T09:37:09;98922.78;;;6.58;100.00
36190;BME280;22232;50.914;13.858;2023-02-15T09:39:39;98928.53;;;6.62;100.00
36190;BME280;22232;50.914;13.858;2023-02-15T09:50:50;98918.28;;;6.82;100.00
36190;BME280;22232;50.914;13.858;2023-02-15T10:01:26;98921.56;;;6.84;100.00
36190;BME280;22232;50.914;13.858;2023-02-15T10:04:24;98925.06;;;6.99;100.00
36190;BME280;22232;50.914;13.858;2023-02-15T10:07:13;98922.38;;;7.22;100.00
36190;BME280;22232;50.914;13.858;2023-02-15T10:18:37;98918.72;;;7.53;100.00
36190;BME280;22232;50.914;13.858;2023-02-15T10:26:46;98906.78;;;7.64;100.00
36190;BME280;22232;50.914;13.858;2023-02-15T10:29:30;98906.78;;;7.64;100.00
36190;BME280;22232;50.914;13.858;2023-02-15T10:32:22;98901.69;;;7.62;100.00
36190;BME280;22232;50.914;13.858;2023-02-15T10:34:54;98896.16;;;7.78;100.00
36190;BME280;22232;50.914;13.858;2023-02-15T10:40:13;98894.63;;;7.69;100.00
36190;BME280;22232;50.914;13.858;2023-02-15T10:48:48;98892.25;;;7.59;100.00
36190;BME280;22232;50.914;13.858;2023-02-15T10:51:36;98889.88;;;7.65;100.00
36190;BME280;22232;50.914;13.858;2023-02-15T10:54:19;98887.84;;;7.67;100.00
36190;BME280;22232;50.914;13.858;2023-02-15T10:57:04;98878.22;;;7.80;100.00
36190;BME280;22232;50.914;13.858;2023-02-15T11:08:09;98860.41;;;7.59;100.00
36190;BME280;22232;50.914;13.858;2023-02-15T11:10:51;98856.25;;;7.72;100.00
36190;BME280;22232;50.914;13.858;2023-02-15T11:13:23;98850.41;;;7.76;100.00
36190;BME280;22232;50.914;13.858;2023-02-15T11:15:58;98854.06;;;7.61;100.00
36190;BME280;22232;50.914;13.858;2023-02-15T11:21:02;98855.00;;;7.68;100.00
36190;BME280;22232;50.914;13.858;2023-02-15T11:23:32;98844.38;;;7.53;100.00
36190;BME280;22232;50.914;13.858;2023-02-15T11:26:04;98845.34;;;7.67;100.00
36190;BME280;22232;50.914;13.858;2023-02-15T11:29:04;98841.41;;;7.77;100.00
36190;BME280;22232;50.914;13.858;2023-02-15T11:31:45;98844.72;;;7.79;100.00
36190;BME280;22232;50.914;13.858;2023-02-15T11:34:21;98846.94;;;7.97;100.00
36190;BME280;22232;50.914;13.858;2023-02-15T11:36:54;98833.84;;;8.17;100.00
36190;BME280;22232;50.914;13.858;2023-02-15T11:39:24;98832.28;;;8.23;100.00
36190;BME280;22232;50.914;13.858;2023-02-15T11:42:00;98829.94;;;8.13;100.00
36190;BME280;22232;50.914;13.858;2023-02-15T11:44:33;98837.59;;;8.23;100.00
36190;BME280;22232;50.914;13.858;2023-02-15T11:47:02;98830.00;;;8.20;100.00
36190;BME280;22232;50.914;13.858;2023-02-15T11:49:34;98834.34;;;8.06;100.00
36190;BME280;22232;50.914;13.858;2023-02-15T11:52:05;98830.09;;;8.33;100.00
36190;BME280;22232;50.914;13.858;2023-02-15T11:54:36;98826.38;;;8.27;100.00
36190;BME280;22232;50.914;13.858;2023-02-15T11:57:26;98818.22;;;8.29;100.00
36190;BME280;22232;50.914;13.858;2023-02-15T12:02:37;98825.38;;;8.50;100.00
36190;BME280;22232;50.914;13.858;2023-02-15T12:05:17;98824.94;;;8.25;100.00
36190;BME280;22232;50.914;13.858;2023-02-15T12:13:09;98802.69;;;8.82;100.00
36190;BME280;22232;50.914;13.858;2023-02-15T12:15:38;98804.19;;;8.63;100.00
36190;BME280;22232;50.914;13.858;2023-02-15T12:18:20;98817.63;;;8.77;100.00
36190;BME280;22232;50.914;13.858;2023-02-15T12:20:49;98806.13;;;8.76;100.00
36190;BME280;22232;50.914;13.858;2023-02-15T12:23:17;98795.16;;;8.86;100.00
36190;BME280;22232;50.914;13.858;2023-02-15T12:25:49;98809.72;;;8.62;100.00
36190;BME280;22232;50.914;13.858;2023-02-15T12:28:34;98803.59;;;8.18;100.00
36190;BME280;22232;50.914;13.858;2023-02-15T12:31:24;98804.81;;;7.94;100.00
36190;BME280;22232;50.914;13.858;2023-02-15T12:33:56;98792.97;;;7.75;100.00
36190;BME280;22232;50.914;13.858;2023-02-15T12:36:29;98799.91;;;7.55;100.00
36190;BME280;22232;50.914;13.858;2023-02-15T12:41:31;98792.41;;;7.44;100.00
36190;BME280;22232;50.914;13.858;2023-02-15T12:44:07;98788.22;;;7.34;100.00
36190;BME280;22232;50.914;13.858;2023-02-15T12:46:40;98783.28;;;7.31;100.00
36190;BME280;22232;50.914;13.858;2023-02-15T12:49:19;98775.97;;;7.33;100.00
36190;BME280;22232;50.914;13.858;2023-02-15T12:52:06;98770.75;;;7.40;100.00
36190;BME280;22232;50.914;13.858;2023-02-15T12:54:39;98757.97;;;7.50;100.00
36190;BME280;22232;50.914;13.858;2023-02-15T12:57:33;98758.31;;;8.05;100.00
36190;BME280;22232;50.914;13.858;2023-02-15T13:03:02;98743.38;;;8.54;100.00
36190;BME280;22232;50.914;13.858;2023-02-15T13:05:38;98739.31;;;8.58;100.00
36190;BME280;22232;50.914;13.858;2023-02-15T13:08:16;98745.53;;;8.65;100.00
36190;BME280;22232;50.914;13.858;2023-02-15T13:10:59;98739.00;;;8.67;100.00
36190;BME280;22232;50.914;13.858;2023-02-15T13:13:30;98740.97;;;8.59;100.00
36190;BME280;22232;50.914;13.858;2023-02-15T13:16:02;98736.50;;;8.66;100.00
36190;BME280;22232;50.914;13.858;2023-02-15T13:18:35;98741.97;;;8.58;100.00
36190;BME280;22232;50.914;13.858;2023-02-15T13:21:14;98733.31;;;8.49;100.00
36190;BME280;22232;50.914;13.858;2023-02-15T13:23:47;98741.81;;;8.38;100.00
36190;BME280;22232;50.914;13.858;2023-02-15T13:26:19;98740.13;;;8.30;100.00
36190;BME280;22232;50.914;13.858;2023-02-15T13:28:54;98746.06;;;8.04;100.00
36190;BME280;22232;50.914;13.858;2023-02-15T13:31:28;98740.59;;;7.91;100.00
36190;BME280;22232;50.914;13.858;2023-02-15T13:34:20;98755.72;;;7.90;100.00
36190;BME280;22232;50.914;13.858;2023-02-15T13:37:16;98752.50;;;7.73;100.00
36190;BME280;22232;50.914;13.858;2023-02-15T13:40:00;98762.50;;;7.71;100.00
36190;BME280;22232;50.914;13.858;2023-02-15T13:42:37;98765.25;;;7.63;100.00
36190;BME280;22232;50.914;13.858;2023-02-15T13:45:13;98771.22;;;7.29;100.00
36190;BME280;22232;50.914;13.858;2023-02-15T13:51:21;98754.88;;;6.66;100.00
36190;BME280;22232;50.914;13.858;2023-02-15T13:54:02;98748.94;;;6.49;100.00
36190;BME280;22232;50.914;13.858;2023-02-15T13:56:39;98748.63;;;6.44;100.00
36190;BME280;22232;50.914;13.858;2023-02-15T14:02:59;98754.03;;;6.51;100.00
36190;BME280;22232;50.914;13.858;2023-02-15T14:19:16;98741.13;;;6.33;100.00
36190;BME280;22232;50.914;13.858;2023-02-15T14:21:59;98739.31;;;6.33;100.00
36190;BME280;22232;50.914;13.858;2023-02-15T14:24:37;98741.38;;;6.23;100.00
36190;BME280;22232;50.914;13.858;2023-02-15T14:30:19;98751.44;;;6.28;100.00
36190;BME280;22232;50.914;13.858;2023-02-15T14:32:52;98756.47;;;6.23;100.00
36190;BME280;22232;50.914;13.858;2023-02-15T14:35:23;98760.59;;;6.02;100.00
36190;BME280;22232;50.914;13.858;2023-02-15T14:40:49;98765.03;;;5.56;100.00
36190;BME280;22232;50.914;13.858;2023-02-15T14:43:34;98755.50;;;5.46;100.00
36190;BME280;22232;50.914;13.858;2023-02-15T14:49:19;98753.13;;;5.28;100.00
36190;BME280;22232;50.914;13.858;2023-02-15T14:56:45;98755.47;;;5.23;100.00
36190;BME280;22232;50.914;13.858;2023-02-15T14:59:17;98750.38;;;5.14;100.00
36190;BME280;22232;50.914;13.858;2023-02-15T15:02:13;98750.13;;;5.00;100.00
36190;BME280;22232;50.914;13.858;2023-02-15T15:05:02;98758.25;;;4.91;100.00
36190;BME280;22232;50.914;13.858;2023-02-15T15:07:51;98763.25;;;4.77;100.00
36190;BME280;22232;50.914;13.858;2023-02-15T15:12:49;98762.34;;;4.54;100.00
36190;BME280;22232;50.914;13.858;2023-02-15T15:25:49;98761.38;;;4.30;100.00
36190;BME280;22232;50.914;13.858;2023-02-15T15:34:31;98769.47;;;4.12;100.00
36190;BME280;22232;50.914;13.858;2023-02-15T15:36:48;98776.75;;;4.02;100.00
36190;BME280;22232;50.914;13.858;2023-02-15T15:40:16;98772.28;;;3.95;100.00